Big Bear Station Historical Data
Daily Summary for June 7, 2019 Units:  English    Metric   Both
Next Day »
Daily Weekly Monthly Yearly Custom
  High: Low: Average:
Temperature: 77 °F 45.5 °F 59 °F
Dew Point: 43.4 °F 25.8 °F 33.7 °F
Humidity: 76% 17% 42%
Wind Speed: 7.3mph 0mph 2.2mph
Wind Gust: -999mph - -
Wind- - West
Pressure: 23.51 in 23.45 in -
Precipitation: 0 in    
Historical Graphs
 
 
Tabular Data for June 7, 2019
Time Temperature Dew Point Pressure Wind Wind Speed Wind Gust Humidity Rainfall Rate (Hourly)
00:06 48.9 °F 38.8 °F 23.51 in Calm   -999 mph 68% 0.00 in
00:21 48.6 °F 34.9 °F 23.51 in Calm   -999 mph 59% 0.00 in
00:37 48.4 °F 33.9 °F 23.51 in Calm   -999 mph 57% 0.00 in
00:52 47.8 °F 32.9 °F 23.51 in Calm   -999 mph 56% 0.00 in
01:07 47.8 °F 36.2 °F 23.50 in Calm   -999 mph 64% 0.00 in
01:22 47.7 °F 38 °F 23.50 in Calm   -999 mph 69% 0.00 in
01:37 47.3 °F 36.1 °F 23.50 in Calm   -999 mph 65% 0.00 in
01:53 47.5 °F 35.5 °F 23.49 in Calm   -999 mph 63% 0.00 in
02:08 46.9 °F 36.1 °F 23.49 in Calm   -999 mph 66% 0.00 in
02:23 46.6 °F 35.8 °F 23.49 in Calm   -999 mph 66% 0.00 in
02:38 46.4 °F 36.4 °F 23.49 in Calm   -999 mph 68% 0.00 in
02:53 46.4 °F 38.9 °F 23.48 in Calm   -999 mph 75% 0.00 in
03:09 45.9 °F 38.8 °F 23.48 in Calm   -999 mph 76% 0.00 in
03:24 46.6 °F 32.6 °F 23.48 in Calm   -999 mph 58% 0.00 in
03:39 45.5 °F 35.6 °F 23.48 in Calm   -999 mph 68% 0.00 in
03:54 45.7 °F 36.5 °F 23.47 in Calm   -999 mph 70% 0.00 in
04:09 45.7 °F 34.6 °F 23.47 in Calm   -999 mph 65% 0.00 in
04:25 45.9 °F 35.6 °F 23.48 in Calm   -999 mph 67% 0.00 in
04:40 46 °F 32.9 °F 23.47 in SSE 1.7 mph -999 mph 60% 0.00 in
04:55 46 °F 32.5 °F 23.47 in SSE 2.7 mph -999 mph 59% 0.00 in
05:11 46.6 °F 31.3 °F 23.47 in Calm   -999 mph 55% 0.00 in
05:26 46.6 °F 31.3 °F 23.46 in Calm   -999 mph 55% 0.00 in
05:41 47.3 °F 30.6 °F 23.47 in Calm   -999 mph 52% 0.00 in
05:56 46.8 °F 31 °F 23.47 in Calm   -999 mph 54% 0.00 in
06:11 47.3 °F 31.9 °F 23.47 in SE 2.2 mph -999 mph 55% 0.00 in
06:27 49.6 °F 32.7 °F 23.47 in South 2.7 mph -999 mph 52% 0.00 in
06:42 50.5 °F 32.5 °F 23.47 in Calm   -999 mph 50% 0.00 in
06:57 52.7 °F 31.4 °F 23.46 in South 1.7 mph -999 mph 44% 0.00 in
07:12 55 °F 31.1 °F 23.47 in SE 2.2 mph -999 mph 40% 0.00 in
07:27 56.5 °F 31.2 °F 23.47 in Calm   -999 mph 38% 0.00 in
07:43 57.6 °F 32.2 °F 23.47 in Calm   -999 mph 38% 0.00 in
07:58 59 °F 32.8 °F 23.47 in NW 7.3 mph -999 mph 37% 0.00 in
08:14 59.9 °F 32.9 °F 23.47 in NNE 3.2 mph -999 mph 36% 0.00 in
08:29 60.3 °F 33.2 °F 23.48 in SW 2.7 mph -999 mph 36% 0.00 in
08:44 60.4 °F 31.2 °F 23.48 in South 1.1 mph -999 mph 33% 0.00 in
08:59 61.2 °F 29.5 °F 23.48 in NNE 4.2 mph -999 mph 30% 0.00 in
09:15 62.1 °F 33.4 °F 23.48 in Calm   -999 mph 34% 0.00 in
09:30 62.8 °F 30.9 °F 23.48 in West 3.2 mph -999 mph 30% 0.00 in
09:45 63.7 °F 30.8 °F 23.48 in WNW 1.7 mph -999 mph 29% 0.00 in
10:00 64.2 °F 32.9 °F 23.48 in North 3.2 mph -999 mph 31% 0.00 in
10:15 64.4 °F 32.3 °F 23.48 in NNW 3.7 mph -999 mph 30% 0.00 in
10:31 64.8 °F 33.4 °F 23.48 in WNW 2.7 mph -999 mph 31% 0.00 in
10:46 64.9 °F 35.9 °F 23.48 in NNW 3.2 mph -999 mph 34% 0.00 in
11:01 65.5 °F 33.2 °F 23.48 in NNW 4.2 mph -999 mph 30% 0.00 in
11:17 66.4 °F 32.3 °F 23.48 in NNW 4.7 mph -999 mph 28% 0.00 in
11:32 68 °F 32.8 °F 23.49 in West 5.3 mph -999 mph 27% 0.00 in
11:47 69.4 °F 31 °F 23.49 in NNW 6.3 mph -999 mph 24% 0.00 in
12:02 70.9 °F 32.3 °F 23.48 in WNW 5.8 mph -999 mph 24% 0.00 in
12:18 71.2 °F 30.4 °F 23.48 in West 3.7 mph -999 mph 22% 0.00 in
12:33 72.3 °F 32.4 °F 23.48 in SE 3.7 mph -999 mph 23% 0.00 in
12:48 72.7 °F 31.7 °F 23.48 in North 3.7 mph -999 mph 22% 0.00 in
13:04 73.2 °F 33.2 °F 23.48 in NW 5.3 mph -999 mph 23% 0.00 in
13:19 72.7 °F 31.7 °F 23.48 in NNW 4.7 mph -999 mph 22% 0.00 in
13:34 72.9 °F 30.7 °F 23.48 in NNE 4.2 mph -999 mph 21% 0.00 in
13:50 72.5 °F 30.3 °F 23.47 in NNW 4.7 mph -999 mph 21% 0.00 in
14:05 73 °F 28.3 °F 23.47 in NNW 5.3 mph -999 mph 19% 0.00 in
14:20 73.8 °F 30.2 °F 23.47 in WNW 5.3 mph -999 mph 20% 0.00 in
14:35 73.2 °F 25.8 °F 23.47 in NNW 4.2 mph -999 mph 17% 0.00 in
14:51 72.5 °F 29.1 °F 23.47 in NNW 6.8 mph -999 mph 20% 0.00 in
15:06 72.9 °F 32.9 °F 23.47 in WNW 6.3 mph -999 mph 23% 0.00 in
15:21 72.3 °F 32.4 °F 23.47 in NNW 4.2 mph -999 mph 23% 0.00 in
15:37 73.2 °F 32.1 °F 23.47 in WNW 5.3 mph -999 mph 22% 0.00 in
15:52 71.6 °F 33.9 °F 23.47 in NNW 3.2 mph -999 mph 25% 0.00 in
16:07 72 °F 29.9 °F 23.47 in SW 1.1 mph -999 mph 21% 0.00 in
16:23 72.1 °F 33.3 °F 23.47 in NNW 5.3 mph -999 mph 24% 0.00 in
16:38 73.8 °F 33.7 °F 23.46 in North 3.2 mph -999 mph 23% 0.00 in
16:54 77 °F 34.1 °F 23.46 in South 1.7 mph -999 mph 21% 0.00 in
17:09 75 °F 35.8 °F 23.46 in NW 2.7 mph -999 mph 24% 0.00 in
17:24 75.6 °F 35.2 °F 23.46 in NW 2.7 mph -999 mph 23% 0.00 in
17:39 73.6 °F 35.6 °F 23.46 in NW 1.1 mph -999 mph 25% 0.00 in
17:54 73.2 °F 39 °F 23.46 in NW 2.7 mph -999 mph 29% 0.00 in
18:10 69.4 °F 40.6 °F 23.45 in West 1.7 mph -999 mph 35% 0.00 in
18:25 69.3 °F 40.5 °F 23.46 in NW 5.3 mph -999 mph 35% 0.00 in
18:40 66.7 °F 41 °F 23.46 in NNW 4.2 mph -999 mph 39% 0.00 in
18:55 66.6 °F 43.4 °F 23.46 in WNW 4.2 mph -999 mph 43% 0.00 in
19:10 64.9 °F 43.1 °F 23.46 in West 1.1 mph -999 mph 45% 0.00 in
19:26 59.5 °F 41.4 °F 23.46 in WNW 3.7 mph -999 mph 51% 0.00 in
19:41 56.5 °F 43.2 °F 23.46 in North 2.7 mph -999 mph 61% 0.00 in
19:56 55 °F 41.4 °F 23.46 in WNW 6.8 mph -999 mph 60% 0.00 in
20:11 54.5 °F 39.1 °F 23.46 in Calm   -999 mph 56% 0.00 in
20:27 54.3 °F 37.5 °F 23.46 in Calm   -999 mph 53% 0.00 in
20:42 53.2 °F 37 °F 23.46 in Calm   -999 mph 54% 0.00 in
20:57 52.2 °F 33.1 °F 23.46 in Calm   -999 mph 48% 0.00 in
21:12 51.8 °F 31.1 °F 23.47 in Calm   -999 mph 45% 0.00 in
21:27 51.8 °F 27 °F 23.46 in SE 2.7 mph -999 mph 38% 0.00 in
21:43 52.2 °F 27.3 °F 23.47 in Calm   -999 mph 38% 0.00 in
21:58 52.2 °F 26.7 °F 23.47 in Calm   -999 mph 37% 0.00 in
22:13 52.3 °F 28.1 °F 23.48 in Calm   -999 mph 39% 0.00 in
22:28 51.8 °F 31.1 °F 23.48 in Calm   -999 mph 45% 0.00 in
22:43 52 °F 31.3 °F 23.48 in Calm   -999 mph 45% 0.00 in
22:59 51.4 °F 32.4 °F 23.48 in South 2.2 mph -999 mph 48% 0.00 in
23:14 50.9 °F 33.4 °F 23.47 in Calm   -999 mph 51% 0.00 in
23:29 51.1 °F 34.1 °F 23.47 in South 2.7 mph -999 mph 52% 0.00 in
23:44 50.2 °F 35.1 °F 23.47 in South 2.7 mph -999 mph 56% 0.00 in
23:59 50.4 °F 34.4 °F 23.47 in Calm   -999 mph 54% 0.00 in
Big Bear CA Weather